sensor_id;sensor_type;location;lat;lon;timestamp;temperature;humidity
16243;DHT22;11719;51.052;6.982;2023-02-15T00:01:39;9.90;99.90
16243;DHT22;11719;51.052;6.982;2023-02-15T00:04:06;9.80;99.90
16243;DHT22;11719;51.052;6.982;2023-02-15T00:06:33;9.80;99.90
16243;DHT22;11719;51.052;6.982;2023-02-15T00:08:59;9.80;99.90
16243;DHT22;11719;51.052;6.982;2023-02-15T00:11:25;9.70;99.90
16243;DHT22;11719;51.052;6.982;2023-02-15T00:14:23;9.70;99.90
16243;DHT22;11719;51.052;6.982;2023-02-15T00:16:50;9.60;99.90
16243;DHT22;11719;51.052;6.982;2023-02-15T00:19:18;9.40;99.90
16243;DHT22;11719;51.052;6.982;2023-02-15T00:21:45;9.40;99.90
16243;DHT22;11719;51.052;6.982;2023-02-15T00:24:14;9.40;99.90
16243;DHT22;11719;51.052;6.982;2023-02-15T00:26:42;9.40;99.90
16243;DHT22;11719;51.052;6.982;2023-02-15T00:29:10;9.40;99.90
16243;DHT22;11719;51.052;6.982;2023-02-15T00:31:36;9.50;99.90
16243;DHT22;11719;51.052;6.982;2023-02-15T00:34:23;9.40;99.90
16243;DHT22;11719;51.052;6.982;2023-02-15T00:36:50;9.20;99.90
16243;DHT22;11719;51.052;6.982;2023-02-15T00:39:17;9.20;99.90
16243;DHT22;11719;51.052;6.982;2023-02-15T00:41:44;9.10;99.90
16243;DHT22;11719;51.052;6.982;2023-02-15T00:44:11;9.10;99.90
16243;DHT22;11719;51.052;6.982;2023-02-15T00:46:37;9.00;99.90
16243;DHT22;11719;51.052;6.982;2023-02-15T00:49:04;9.00;99.90
16243;DHT22;11719;51.052;6.982;2023-02-15T00:51:30;9.00;99.90
16243;DHT22;11719;51.052;6.982;2023-02-15T00:53:57;9.00;99.90
16243;DHT22;11719;51.052;6.982;2023-02-15T00:56:23;9.10;99.90
16243;DHT22;11719;51.052;6.982;2023-02-15T00:58:48;9.10;99.90
16243;DHT22;11719;51.052;6.982;2023-02-15T01:01:19;9.00;99.90
16243;DHT22;11719;51.052;6.982;2023-02-15T01:03:46;9.10;99.90
16243;DHT22;11719;51.052;6.982;2023-02-15T01:06:12;9.20;99.90
16243;DHT22;11719;51.052;6.982;2023-02-15T01:08:40;9.30;99.90
16243;DHT22;11719;51.052;6.982;2023-02-15T01:11:11;9.20;99.90
16243;DHT22;11719;51.052;6.982;2023-02-15T01:13:38;9.10;99.90
16243;DHT22;11719;51.052;6.982;2023-02-15T01:16:05;9.20;99.90
16243;DHT22;11719;51.052;6.982;2023-02-15T01:18:31;9.20;99.90
16243;DHT22;11719;51.052;6.982;2023-02-15T01:20:57;9.20;99.90
16243;DHT22;11719;51.052;6.982;2023-02-15T01:23:23;9.10;99.90
16243;DHT22;11719;51.052;6.982;2023-02-15T01:25:49;9.10;99.90
16243;DHT22;11719;51.052;6.982;2023-02-15T01:28:15;9.00;99.90
16243;DHT22;11719;51.052;6.982;2023-02-15T01:30:41;8.90;99.90
16243;DHT22;11719;51.052;6.982;2023-02-15T01:33:07;8.90;99.90
16243;DHT22;11719;51.052;6.982;2023-02-15T01:35:34;8.90;99.90
16243;DHT22;11719;51.052;6.982;2023-02-15T01:38:03;8.90;99.90
16243;DHT22;11719;51.052;6.982;2023-02-15T01:40:29;8.80;99.90
16243;DHT22;11719;51.052;6.982;2023-02-15T01:42:55;8.70;99.90
16243;DHT22;11719;51.052;6.982;2023-02-15T01:45:27;8.50;99.90
16243;DHT22;11719;51.052;6.982;2023-02-15T01:48:19;8.40;99.90
16243;DHT22;11719;51.052;6.982;2023-02-15T01:50:56;8.40;99.90
16243;DHT22;11719;51.052;6.982;2023-02-15T01:54:05;8.30;99.90
16243;DHT22;11719;51.052;6.982;2023-02-15T01:56:28;8.30;99.90
16243;DHT22;11719;51.052;6.982;2023-02-15T01:58:57;8.30;99.90
16243;DHT22;11719;51.052;6.982;2023-02-15T02:01:26;8.20;99.90
16243;DHT22;11719;51.052;6.982;2023-02-15T02:06:39;8.10;99.90
16243;DHT22;11719;51.052;6.982;2023-02-15T02:09:05;8.10;99.90
16243;DHT22;11719;51.052;6.982;2023-02-15T02:11:32;8.10;99.90
16243;DHT22;11719;51.052;6.982;2023-02-15T02:13:58;8.10;99.90
16243;DHT22;11719;51.052;6.982;2023-02-15T02:16:34;8.00;99.90
16243;DHT22;11719;51.052;6.982;2023-02-15T02:31:15;7.90;99.90
16243;DHT22;11719;51.052;6.982;2023-02-15T02:40:08;8.10;99.90
16243;DHT22;11719;51.052;6.982;2023-02-15T02:42:44;8.00;99.90
16243;DHT22;11719;51.052;6.982;2023-02-15T02:45:46;8.00;99.90
16243;DHT22;11719;51.052;6.982;2023-02-15T02:48:32;8.00;99.90
16243;DHT22;11719;51.052;6.982;2023-02-15T02:50:59;8.00;99.90
16243;DHT22;11719;51.052;6.982;2023-02-15T02:53:26;8.00;99.90
16243;DHT22;11719;51.052;6.982;2023-02-15T02:55:57;8.00;99.90
16243;DHT22;11719;51.052;6.982;2023-02-15T03:01:09;7.80;99.90
16243;DHT22;11719;51.052;6.982;2023-02-15T03:04:40;7.80;99.90
16243;DHT22;11719;51.052;6.982;2023-02-15T03:07:01;7.80;99.90
16243;DHT22;11719;51.052;6.982;2023-02-15T03:09:35;7.80;99.90
16243;DHT22;11719;51.052;6.982;2023-02-15T03:12:29;7.80;99.90
16243;DHT22;11719;51.052;6.982;2023-02-15T03:15:03;7.70;99.90
16243;DHT22;11719;51.052;6.982;2023-02-15T03:17:33;7.70;99.90
16243;DHT22;11719;51.052;6.982;2023-02-15T03:20:08;7.70;99.90
16243;DHT22;11719;51.052;6.982;2023-02-15T03:22:53;7.70;99.90
16243;DHT22;11719;51.052;6.982;2023-02-15T03:25:36;7.60;99.90
16243;DHT22;11719;51.052;6.982;2023-02-15T03:28:10;7.60;99.90
16243;DHT22;11719;51.052;6.982;2023-02-15T03:30:39;7.50;99.90
16243;DHT22;11719;51.052;6.982;2023-02-15T03:33:09;7.60;99.90
16243;DHT22;11719;51.052;6.982;2023-02-15T03:35:51;7.60;99.90
16243;DHT22;11719;51.052;6.982;2023-02-15T03:38:31;7.60;99.90
16243;DHT22;11719;51.052;6.982;2023-02-15T03:41:01;7.60;99.90
16243;DHT22;11719;51.052;6.982;2023-02-15T03:44:03;7.50;99.90
16243;DHT22;11719;51.052;6.982;2023-02-15T03:49:59;7.50;99.90
16243;DHT22;11719;51.052;6.982;2023-02-15T03:52:11;7.50;99.90
16243;DHT22;11719;51.052;6.982;2023-02-15T03:54:39;7.50;99.90
16243;DHT22;11719;51.052;6.982;2023-02-15T03:57:23;7.60;99.90
16243;DHT22;11719;51.052;6.982;2023-02-15T04:05:42;7.50;99.90
16243;DHT22;11719;51.052;6.982;2023-02-15T04:08:09;7.50;99.90
16243;DHT22;11719;51.052;6.982;2023-02-15T04:10:36;7.50;99.90
16243;DHT22;11719;51.052;6.982;2023-02-15T04:13:20;7.40;99.90
16243;DHT22;11719;51.052;6.982;2023-02-15T04:15:55;7.40;99.90
16243;DHT22;11719;51.052;6.982;2023-02-15T04:18:41;7.40;99.90
16243;DHT22;11719;51.052;6.982;2023-02-15T04:21:29;7.50;99.90
16243;DHT22;11719;51.052;6.982;2023-02-15T04:24:14;7.40;99.90
16243;DHT22;11719;51.052;6.982;2023-02-15T04:26:59;7.30;99.90
16243;DHT22;11719;51.052;6.982;2023-02-15T04:29:27;7.30;99.90
16243;DHT22;11719;51.052;6.982;2023-02-15T04:31:55;7.20;99.90
16243;DHT22;11719;51.052;6.982;2023-02-15T04:34:23;7.20;99.90
16243;DHT22;11719;51.052;6.982;2023-02-15T04:36:49;7.30;99.90
16243;DHT22;11719;51.052;6.982;2023-02-15T04:39:16;7.20;99.90
16243;DHT22;11719;51.052;6.982;2023-02-15T04:41:43;7.20;99.90
16243;DHT22;11719;51.052;6.982;2023-02-15T04:44:10;7.20;99.90
16243;DHT22;11719;51.052;6.982;2023-02-15T04:46:36;7.20;99.90
16243;DHT22;11719;51.052;6.982;2023-02-15T04:49:02;7.10;99.90
16243;DHT22;11719;51.052;6.982;2023-02-15T04:51:29;7.00;99.90
16243;DHT22;11719;51.052;6.982;2023-02-15T04:53:54;6.90;99.90
16243;DHT22;11719;51.052;6.982;2023-02-15T04:56:22;6.90;99.90
16243;DHT22;11719;51.052;6.982;2023-02-15T04:58:48;7.00;99.90
16243;DHT22;11719;51.052;6.982;2023-02-15T05:01:14;6.90;99.90
16243;DHT22;11719;51.052;6.982;2023-02-15T05:03:40;7.00;99.90
16243;DHT22;11719;51.052;6.982;2023-02-15T05:06:06;7.00;99.90
16243;DHT22;11719;51.052;6.982;2023-02-15T05:08:33;7.20;99.90
16243;DHT22;11719;51.052;6.982;2023-02-15T05:10:58;7.20;99.90
16243;DHT22;11719;51.052;6.982;2023-02-15T05:13:24;7.10;99.90
16243;DHT22;11719;51.052;6.982;2023-02-15T05:15:51;7.00;99.90
16243;DHT22;11719;51.052;6.982;2023-02-15T05:18:19;7.00;99.90
16243;DHT22;11719;51.052;6.982;2023-02-15T05:20:46;7.00;99.90
16243;DHT22;11719;51.052;6.982;2023-02-15T05:23:12;6.90;99.90
16243;DHT22;11719;51.052;6.982;2023-02-15T05:25:38;6.90;99.90
16243;DHT22;11719;51.052;6.982;2023-02-15T05:28:25;6.80;99.90
16243;DHT22;11719;51.052;6.982;2023-02-15T05:31:13;6.80;99.90
16243;DHT22;11719;51.052;6.982;2023-02-15T05:33:40;6.90;99.90
16243;DHT22;11719;51.052;6.982;2023-02-15T05:36:07;7.10;99.90
16243;DHT22;11719;51.052;6.982;2023-02-15T05:38:33;7.30;99.90
16243;DHT22;11719;51.052;6.982;2023-02-15T05:41:00;7.30;99.90
16243;DHT22;11719;51.052;6.982;2023-02-15T05:43:26;7.20;99.90
16243;DHT22;11719;51.052;6.982;2023-02-15T05:45:53;7.20;99.90
16243;DHT22;11719;51.052;6.982;2023-02-15T05:48:22;7.20;99.90
16243;DHT22;11719;51.052;6.982;2023-02-15T05:51:06;7.20;99.90
16243;DHT22;11719;51.052;6.982;2023-02-15T05:53:36;7.30;99.90
16243;DHT22;11719;51.052;6.982;2023-02-15T05:56:04;7.30;99.90
16243;DHT22;11719;51.052;6.982;2023-02-15T05:58:33;7.10;99.90
16243;DHT22;11719;51.052;6.982;2023-02-15T06:01:18;7.10;99.90
16243;DHT22;11719;51.052;6.982;2023-02-15T06:03:47;6.90;99.90
16243;DHT22;11719;51.052;6.982;2023-02-15T06:06:13;6.90;99.90
16243;DHT22;11719;51.052;6.982;2023-02-15T06:08:39;6.90;99.90
16243;DHT22;11719;51.052;6.982;2023-02-15T06:11:06;6.90;99.90
16243;DHT22;11719;51.052;6.982;2023-02-15T06:13:32;7.00;99.90
16243;DHT22;11719;51.052;6.982;2023-02-15T06:15:59;7.20;99.90
16243;DHT22;11719;51.052;6.982;2023-02-15T06:18:25;7.20;99.90
16243;DHT22;11719;51.052;6.982;2023-02-15T06:20:50;7.20;99.90
16243;DHT22;11719;51.052;6.982;2023-02-15T06:23:16;7.20;99.90
16243;DHT22;11719;51.052;6.982;2023-02-15T06:25:45;7.10;99.90
16243;DHT22;11719;51.052;6.982;2023-02-15T06:28:11;7.00;99.90
16243;DHT22;11719;51.052;6.982;2023-02-15T06:30:37;6.90;99.90
16243;DHT22;11719;51.052;6.982;2023-02-15T06:33:02;6.90;99.90
16243;DHT22;11719;51.052;6.982;2023-02-15T06:35:28;6.80;99.90
16243;DHT22;11719;51.052;6.982;2023-02-15T06:37:54;6.80;99.90
16243;DHT22;11719;51.052;6.982;2023-02-15T06:40:20;6.80;99.90
16243;DHT22;11719;51.052;6.982;2023-02-15T06:42:45;6.80;99.90
16243;DHT22;11719;51.052;6.982;2023-02-15T06:45:12;6.80;99.90
16243;DHT22;11719;51.052;6.982;2023-02-15T06:47:38;6.70;99.90
16243;DHT22;11719;51.052;6.982;2023-02-15T06:50:05;6.80;99.90
16243;DHT22;11719;51.052;6.982;2023-02-15T06:52:32;6.80;99.90
16243;DHT22;11719;51.052;6.982;2023-02-15T06:54:57;6.90;99.90
16243;DHT22;11719;51.052;6.982;2023-02-15T06:57:23;6.80;99.90
16243;DHT22;11719;51.052;6.982;2023-02-15T06:59:49;6.80;99.90
16243;DHT22;11719;51.052;6.982;2023-02-15T07:02:15;6.80;99.90
16243;DHT22;11719;51.052;6.982;2023-02-15T07:04:41;6.80;99.90
16243;DHT22;11719;51.052;6.982;2023-02-15T07:07:12;6.80;99.90
16243;DHT22;11719;51.052;6.982;2023-02-15T07:09:38;6.80;99.90
16243;DHT22;11719;51.052;6.982;2023-02-15T07:12:04;6.90;99.90
16243;DHT22;11719;51.052;6.982;2023-02-15T07:14:49;6.90;99.90
16243;DHT22;11719;51.052;6.982;2023-02-15T07:17:15;7.10;99.90
16243;DHT22;11719;51.052;6.982;2023-02-15T07:19:41;7.10;99.90
16243;DHT22;11719;51.052;6.982;2023-02-15T07:22:07;7.10;99.90
16243;DHT22;11719;51.052;6.982;2023-02-15T07:24:32;7.10;99.90
16243;DHT22;11719;51.052;6.982;2023-02-15T07:26:58;7.10;99.90
16243;DHT22;11719;51.052;6.982;2023-02-15T07:29:24;7.20;99.90
16243;DHT22;11719;51.052;6.982;2023-02-15T07:31:50;7.30;99.90
16243;DHT22;11719;51.052;6.982;2023-02-15T07:34:16;7.30;99.90
16243;DHT22;11719;51.052;6.982;2023-02-15T07:36:42;7.30;99.90
16243;DHT22;11719;51.052;6.982;2023-02-15T07:39:10;7.30;99.90
16243;DHT22;11719;51.052;6.982;2023-02-15T07:41:36;7.40;99.90
16243;DHT22;11719;51.052;6.982;2023-02-15T07:44:02;7.50;99.90
16243;DHT22;11719;51.052;6.982;2023-02-15T07:46:28;7.70;99.90
16243;DHT22;11719;51.052;6.982;2023-02-15T07:48:55;7.80;99.90
16243;DHT22;11719;51.052;6.982;2023-02-15T07:51:21;8.20;99.90
16243;DHT22;11719;51.052;6.982;2023-02-15T07:53:47;8.40;99.90
16243;DHT22;11719;51.052;6.982;2023-02-15T07:56:14;8.40;99.90
16243;DHT22;11719;51.052;6.982;2023-02-15T07:58:40;8.70;99.90
16243;DHT22;11719;51.052;6.982;2023-02-15T08:01:40;8.70;99.90
16243;DHT22;11719;51.052;6.982;2023-02-15T08:04:07;8.80;99.90
16243;DHT22;11719;51.052;6.982;2023-02-15T08:06:36;9.10;99.90
16243;DHT22;11719;51.052;6.982;2023-02-15T08:09:07;9.10;99.90
16243;DHT22;11719;51.052;6.982;2023-02-15T08:11:35;9.40;99.90
16243;DHT22;11719;51.052;6.982;2023-02-15T08:14:09;9.70;99.90
16243;DHT22;11719;51.052;6.982;2023-02-15T08:16:51;9.60;99.90
16243;DHT22;11719;51.052;6.982;2023-02-15T08:19:27;9.40;99.90
16243;DHT22;11719;51.052;6.982;2023-02-15T08:21:56;9.40;99.90
16243;DHT22;11719;51.052;6.982;2023-02-15T08:24:24;9.20;99.90
16243;DHT22;11719;51.052;6.982;2023-02-15T08:26:52;8.90;99.90
16243;DHT22;11719;51.052;6.982;2023-02-15T08:29:20;9.20;99.90
16243;DHT22;11719;51.052;6.982;2023-02-15T08:31:53;9.30;99.90
16243;DHT22;11719;51.052;6.982;2023-02-15T08:34:27;9.40;99.90
16243;DHT22;11719;51.052;6.982;2023-02-15T08:36:55;9.60;99.90
16243;DHT22;11719;51.052;6.982;2023-02-15T08:39:21;9.60;99.90
16243;DHT22;11719;51.052;6.982;2023-02-15T08:41:48;9.60;99.90
16243;DHT22;11719;51.052;6.982;2023-02-15T08:44:16;9.60;99.90
16243;DHT22;11719;51.052;6.982;2023-02-15T08:46:44;9.50;99.90
16243;DHT22;11719;51.052;6.982;2023-02-15T08:49:15;9.60;99.90
16243;DHT22;11719;51.052;6.982;2023-02-15T08:51:43;9.60;99.90
16243;DHT22;11719;51.052;6.982;2023-02-15T08:54:13;10.00;99.90
16243;DHT22;11719;51.052;6.982;2023-02-15T08:56:41;10.10;99.90
16243;DHT22;11719;51.052;6.982;2023-02-15T08:59:16;10.20;99.90
16243;DHT22;11719;51.052;6.982;2023-02-15T09:01:47;10.40;99.90
16243;DHT22;11719;51.052;6.982;2023-02-15T09:04:14;10.80;99.90
16243;DHT22;11719;51.052;6.982;2023-02-15T09:06:42;10.90;99.90
16243;DHT22;11719;51.052;6.982;2023-02-15T09:09:09;10.50;99.90
16243;DHT22;11719;51.052;6.982;2023-02-15T09:11:38;10.90;99.90
16243;DHT22;11719;51.052;6.982;2023-02-15T09:14:11;11.20;99.90
16243;DHT22;11719;51.052;6.982;2023-02-15T09:16:43;11.40;99.90
16243;DHT22;11719;51.052;6.982;2023-02-15T09:19:11;11.20;99.90
16243;DHT22;11719;51.052;6.982;2023-02-15T09:21:38;10.80;99.90
16243;DHT22;11719;51.052;6.982;2023-02-15T09:24:06;11.10;99.90
16243;DHT22;11719;51.052;6.982;2023-02-15T09:26:36;11.70;99.90
16243;DHT22;11719;51.052;6.982;2023-02-15T09:29:04;11.70;99.90
16243;DHT22;11719;51.052;6.982;2023-02-15T09:31:33;11.50;99.90
16243;DHT22;11719;51.052;6.982;2023-02-15T09:34:02;11.50;99.90
16243;DHT22;11719;51.052;6.982;2023-02-15T09:39:10;10.90;99.90
16243;DHT22;11719;51.052;6.982;2023-02-15T09:45:05;10.90;99.90
16243;DHT22;11719;51.052;6.982;2023-02-15T09:48:09;11.20;99.90
16243;DHT22;11719;51.052;6.982;2023-02-15T09:53:43;11.80;99.90
16243;DHT22;11719;51.052;6.982;2023-02-15T09:59:47;11.20;99.90
16243;DHT22;11719;51.052;6.982;2023-02-15T10:05:30;11.20;99.90
16243;DHT22;11719;51.052;6.982;2023-02-15T10:14:19;12.30;99.90
16243;DHT22;11719;51.052;6.982;2023-02-15T10:26:21;12.40;99.90
16243;DHT22;11719;51.052;6.982;2023-02-15T10:28:53;12.90;99.90
16243;DHT22;11719;51.052;6.982;2023-02-15T10:34:30;13.30;99.10
16243;DHT22;11719;51.052;6.982;2023-02-15T10:40:25;13.20;99.90
16243;DHT22;11719;51.052;6.982;2023-02-15T11:01:18;14.30;98.40
16243;DHT22;11719;51.052;6.982;2023-02-15T11:06:56;14.40;99.90
16243;DHT22;11719;51.052;6.982;2023-02-15T11:09:29;14.40;97.00
16243;DHT22;11719;51.052;6.982;2023-02-15T11:12:01;14.20;97.60
16243;DHT22;11719;51.052;6.982;2023-02-15T11:17:19;14.10;99.10
16243;DHT22;11719;51.052;6.982;2023-02-15T11:22:51;14.10;99.70
16243;DHT22;11719;51.052;6.982;2023-02-15T11:25:31;14.20;98.70
16243;DHT22;11719;51.052;6.982;2023-02-15T11:28:03;14.20;97.60
16243;DHT22;11719;51.052;6.982;2023-02-15T11:30:42;14.10;98.60
16243;DHT22;11719;51.052;6.982;2023-02-15T11:33:39;14.20;98.50
16243;DHT22;11719;51.052;6.982;2023-02-15T11:36:28;14.20;98.10
16243;DHT22;11719;51.052;6.982;2023-02-15T11:39:04;14.10;97.50
16243;DHT22;11719;51.052;6.982;2023-02-15T11:41:46;14.10;99.90
16243;DHT22;11719;51.052;6.982;2023-02-15T11:44:27;14.40;98.80
16243;DHT22;11719;51.052;6.982;2023-02-15T11:47:02;14.40;97.30
16243;DHT22;11719;51.052;6.982;2023-02-15T11:49:31;14.30;97.80
16243;DHT22;11719;51.052;6.982;2023-02-15T11:52:06;14.30;98.30
16243;DHT22;11719;51.052;6.982;2023-02-15T11:54:36;14.30;98.00
16243;DHT22;11719;51.052;6.982;2023-02-15T11:57:34;14.30;97.50
16243;DHT22;11719;51.052;6.982;2023-02-15T12:02:57;14.40;97.60
16243;DHT22;11719;51.052;6.982;2023-02-15T12:05:24;14.30;97.10
16243;DHT22;11719;51.052;6.982;2023-02-15T12:08:01;14.40;97.40
16243;DHT22;11719;51.052;6.982;2023-02-15T12:10:36;14.30;97.70
16243;DHT22;11719;51.052;6.982;2023-02-15T12:15:42;14.40;99.60
16243;DHT22;11719;51.052;6.982;2023-02-15T12:18:37;14.50;99.30
16243;DHT22;11719;51.052;6.982;2023-02-15T12:21:11;14.80;99.30
16243;DHT22;11719;51.052;6.982;2023-02-15T12:23:48;14.90;97.10
16243;DHT22;11719;51.052;6.982;2023-02-15T12:26:26;14.90;96.90
16243;DHT22;11719;51.052;6.982;2023-02-15T12:28:56;15.00;97.20
16243;DHT22;11719;51.052;6.982;2023-02-15T12:34:28;14.90;98.80
16243;DHT22;11719;51.052;6.982;2023-02-15T12:36:59;15.10;96.90
16243;DHT22;11719;51.052;6.982;2023-02-15T12:39:30;15.10;96.80
16243;DHT22;11719;51.052;6.982;2023-02-15T12:41:57;15.10;97.60
16243;DHT22;11719;51.052;6.982;2023-02-15T12:44:28;15.10;97.40
16243;DHT22;11719;51.052;6.982;2023-02-15T12:47:06;15.00;97.20
16243;DHT22;11719;51.052;6.982;2023-02-15T12:50:06;15.10;97.40
16243;DHT22;11719;51.052;6.982;2023-02-15T12:52:34;15.10;97.80
16243;DHT22;11719;51.052;6.982;2023-02-15T12:55:29;15.30;97.60
16243;DHT22;11719;51.052;6.982;2023-02-15T12:58:26;15.30;95.90
16243;DHT22;11719;51.052;6.982;2023-02-15T13:01:14;15.30;95.60
16243;DHT22;11719;51.052;6.982;2023-02-15T13:04:03;15.30;95.80
16243;DHT22;11719;51.052;6.982;2023-02-15T13:06:35;15.40;96.30
16243;DHT22;11719;51.052;6.982;2023-02-15T13:09:19;15.30;96.00
16243;DHT22;11719;51.052;6.982;2023-02-15T13:12:30;15.30;95.90
16243;DHT22;11719;51.052;6.982;2023-02-15T13:15:02;15.30;97.00
16243;DHT22;11719;51.052;6.982;2023-02-15T13:17:32;15.40;96.40
16243;DHT22;11719;51.052;6.982;2023-02-15T13:20:26;15.40;95.90
16243;DHT22;11719;51.052;6.982;2023-02-15T13:23:34;15.60;97.60
16243;DHT22;11719;51.052;6.982;2023-02-15T13:26:04;15.60;96.00
16243;DHT22;11719;51.052;6.982;2023-02-15T13:28:52;15.60;94.50
16243;DHT22;11719;51.052;6.982;2023-02-15T13:31:27;15.70;95.40
16243;DHT22;11719;51.052;6.982;2023-02-15T13:34:20;15.80;96.40
16243;DHT22;11719;51.052;6.982;2023-02-15T13:37:15;15.90;95.40
16243;DHT22;11719;51.052;6.982;2023-02-15T13:40:02;16.00;94.70
16243;DHT22;11719;51.052;6.982;2023-02-15T13:42:38;16.10;95.20
16243;DHT22;11719;51.052;6.982;2023-02-15T13:45:38;16.20;95.20
16243;DHT22;11719;51.052;6.982;2023-02-15T13:51:05;16.30;95.50
16243;DHT22;11719;51.052;6.982;2023-02-15T14:15:38;19.00;90.80
16243;DHT22;11719;51.052;6.982;2023-02-15T14:24:08;18.20;91.30
16243;DHT22;11719;51.052;6.982;2023-02-15T14:27:09;17.90;90.60
16243;DHT22;11719;51.052;6.982;2023-02-15T14:30:00;17.50;91.90
16243;DHT22;11719;51.052;6.982;2023-02-15T14:32:49;17.30;92.50
16243;DHT22;11719;51.052;6.982;2023-02-15T14:35:20;17.10;91.90
16243;DHT22;11719;51.052;6.982;2023-02-15T14:38:06;16.90;92.90
16243;DHT22;11719;51.052;6.982;2023-02-15T14:40:57;16.80;92.80
16243;DHT22;11719;51.052;6.982;2023-02-15T14:49:35;16.40;93.40
16243;DHT22;11719;51.052;6.982;2023-02-15T14:52:10;16.30;94.10
16243;DHT22;11719;51.052;6.982;2023-02-15T14:59:55;16.00;93.80
16243;DHT22;11719;51.052;6.982;2023-02-15T15:02:48;15.90;94.30
16243;DHT22;11719;51.052;6.982;2023-02-15T15:05:32;15.80;94.20
16243;DHT22;11719;51.052;6.982;2023-02-15T15:08:03;15.80;94.90
16243;DHT22;11719;51.052;6.982;2023-02-15T15:10:39;15.70;94.90
16243;DHT22;11719;51.052;6.982;2023-02-15T15:15:56;15.70;95.00
16243;DHT22;11719;51.052;6.982;2023-02-15T15:18:51;15.60;95.70
16243;DHT22;11719;51.052;6.982;2023-02-15T15:32:50;15.30;96.00
16243;DHT22;11719;51.052;6.982;2023-02-15T15:41:41;15.10;97.80
16243;DHT22;11719;51.052;6.982;2023-02-15T15:49:43;14.90;96.50
16243;DHT22;11719;51.052;6.982;2023-02-15T15:52:18;14.90;97.60
16243;DHT22;11719;51.052;6.982;2023-02-15T15:54:49;14.90;98.10
16243;DHT22;11719;51.052;6.982;2023-02-15T15:57:42;15.00;98.40
16243;DHT22;11719;51.052;6.982;2023-02-15T16:00:35;15.00;97.90
16243;DHT22;11719;51.052;6.982;2023-02-15T16:03:25;15.00;96.40
16243;DHT22;11719;51.052;6.982;2023-02-15T16:05:52;14.90;96.40
16243;DHT22;11719;51.052;6.982;2023-02-15T16:08:36;14.80;96.30
16243;DHT22;11719;51.052;6.982;2023-02-15T16:11:20;14.70;96.80
16243;DHT22;11719;51.052;6.982;2023-02-15T16:13:49;14.60;96.70
16243;DHT22;11719;51.052;6.982;2023-02-15T16:16:21;14.60;97.40
16243;DHT22;11719;51.052;6.982;2023-02-15T16:18:50;14.60;97.90
16243;DHT22;11719;51.052;6.982;2023-02-15T16:21:21;14.60;97.70
16243;DHT22;11719;51.052;6.982;2023-02-15T16:29:48;14.90;97.70
16243;DHT22;11719;51.052;6.982;2023-02-15T16:32:22;14.90;97.60
16243;DHT22;11719;51.052;6.982;2023-02-15T16:34:59;14.90;96.90
16243;DHT22;11719;51.052;6.982;2023-02-15T16:37:31;14.90;98.50
16243;DHT22;11719;51.052;6.982;2023-02-15T16:39:59;15.00;98.30
16243;DHT22;11719;51.052;6.982;2023-02-15T16:42:25;15.00;98.10
16243;DHT22;11719;51.052;6.982;2023-02-15T16:44:57;15.10;97.30
16243;DHT22;11719;51.052;6.982;2023-02-15T16:47:38;15.10;97.40
16243;DHT22;11719;51.052;6.982;2023-02-15T16:50:21;15.00;97.70
16243;DHT22;11719;51.052;6.982;2023-02-15T16:52:51;15.10;98.20
16243;DHT22;11719;51.052;6.982;2023-02-15T16:55:22;15.30;98.10
16243;DHT22;11719;51.052;6.982;2023-02-15T16:57:57;15.40;96.90
16243;DHT22;11719;51.052;6.982;2023-02-15T17:00:31;15.40;96.80
16243;DHT22;11719;51.052;6.982;2023-02-15T17:03:06;15.30;97.10
16243;DHT22;11719;51.052;6.982;2023-02-15T17:05:57;15.10;96.30
16243;DHT22;11719;51.052;6.982;2023-02-15T17:08:35;14.80;97.00
16243;DHT22;11719;51.052;6.982;2023-02-15T17:11:20;14.70;97.30
16243;DHT22;11719;51.052;6.982;2023-02-15T17:19:09;14.70;99.00
16243;DHT22;11719;51.052;6.982;2023-02-15T17:21:44;14.80;98.60
16243;DHT22;11719;51.052;6.982;2023-02-15T17:24:18;14.80;96.90
16243;DHT22;11719;51.052;6.982;2023-02-15T17:27:26;14.50;97.10
16243;DHT22;11719;51.052;6.982;2023-02-15T17:30:01;14.10;97.80
16243;DHT22;11719;51.052;6.982;2023-02-15T17:32:31;13.90;98.00
16243;DHT22;11719;51.052;6.982;2023-02-15T17:34:59;13.80;99.50
16243;DHT22;11719;51.052;6.982;2023-02-15T17:40:31;13.50;99.30
16243;DHT22;11719;51.052;6.982;2023-02-15T17:42:58;13.40;99.50
16243;DHT22;11719;51.052;6.982;2023-02-15T17:45:36;13.30;99.70
16243;DHT22;11719;51.052;6.982;2023-02-15T17:48:06;13.30;99.90
16243;DHT22;11719;51.052;6.982;2023-02-15T17:50:40;13.20;99.90
16243;DHT22;11719;51.052;6.982;2023-02-15T17:53:08;13.10;99.90
16243;DHT22;11719;51.052;6.982;2023-02-15T17:55:42;13.00;99.90
16243;DHT22;11719;51.052;6.982;2023-02-15T17:58:11;12.90;99.90
16243;DHT22;11719;51.052;6.982;2023-02-15T18:00:58;12.80;99.90
16243;DHT22;11719;51.052;6.982;2023-02-15T18:03:49;12.80;99.90
16243;DHT22;11719;51.052;6.982;2023-02-15T18:06:37;12.70;99.90
16243;DHT22;11719;51.052;6.982;2023-02-15T18:09:23;12.60;99.90
16243;DHT22;11719;51.052;6.982;2023-02-15T18:14:45;12.40;99.90
16243;DHT22;11719;51.052;6.982;2023-02-15T18:17:13;12.30;99.90
16243;DHT22;11719;51.052;6.982;2023-02-15T18:19:40;12.40;99.90
16243;DHT22;11719;51.052;6.982;2023-02-15T18:22:12;12.40;99.90
16243;DHT22;11719;51.052;6.982;2023-02-15T18:24:40;12.30;99.90
16243;DHT22;11719;51.052;6.982;2023-02-15T18:27:06;12.30;99.90
16243;DHT22;11719;51.052;6.982;2023-02-15T18:29:32;12.20;99.90
16243;DHT22;11719;51.052;6.982;2023-02-15T18:31:59;12.20;99.90
16243;DHT22;11719;51.052;6.982;2023-02-15T18:34:31;12.20;99.90
16243;DHT22;11719;51.052;6.982;2023-02-15T18:36:59;12.20;99.90
16243;DHT22;11719;51.052;6.982;2023-02-15T18:42:05;12.30;99.90
16243;DHT22;11719;51.052;6.982;2023-02-15T18:44:34;12.30;99.90
16243;DHT22;11719;51.052;6.982;2023-02-15T18:46:59;12.40;99.90
16243;DHT22;11719;51.052;6.982;2023-02-15T18:49:25;12.40;99.90
16243;DHT22;11719;51.052;6.982;2023-02-15T18:51:52;12.30;99.90
16243;DHT22;11719;51.052;6.982;2023-02-15T18:54:21;12.40;99.90
16243;DHT22;11719;51.052;6.982;2023-02-15T18:56:57;12.30;99.90
16243;DHT22;11719;51.052;6.982;2023-02-15T18:59:25;12.40;99.90
16243;DHT22;11719;51.052;6.982;2023-02-15T19:01:53;12.30;99.90
16243;DHT22;11719;51.052;6.982;2023-02-15T19:04:20;12.30;99.90
16243;DHT22;11719;51.052;6.982;2023-02-15T19:06:47;12.30;99.90
16243;DHT22;11719;51.052;6.982;2023-02-15T19:09:16;12.30;99.90
16243;DHT22;11719;51.052;6.982;2023-02-15T19:11:48;12.30;99.90
16243;DHT22;11719;51.052;6.982;2023-02-15T19:14:31;12.20;99.90
16243;DHT22;11719;51.052;6.982;2023-02-15T19:16:58;12.20;99.90
16243;DHT22;11719;51.052;6.982;2023-02-15T19:19:25;12.30;99.90
16243;DHT22;11719;51.052;6.982;2023-02-15T19:21:52;12.20;99.90
16243;DHT22;11719;51.052;6.982;2023-02-15T19:24:35;12.10;99.90
16243;DHT22;11719;51.052;6.982;2023-02-15T19:27:05;12.00;99.90
16243;DHT22;11719;51.052;6.982;2023-02-15T19:29:32;11.90;99.90
16243;DHT22;11719;51.052;6.982;2023-02-15T19:31:58;11.90;99.90